首页
METAR-TAF:

METAR-TAF

机场 :

桑給巴爾, 坦桑尼亚

纬度: 06-13S, 经度: 039-13E, 海拔: 15米

当前天气观测

该预报发布于1小时和10分钟前的14:00 UTC
风速7节,风向东北
温度 31°C
湿度 66%
气压 1009 hPa
能见度10公里或以上
少量云层高于2400英尺

METAR: HTZA 291400Z 04007KT 9999 FEW024 31/24 Q1009 NOSIG

时间: 18:10 (15:10 UTC)

预报

该预报发布于4小时和10分钟前的11:00 UTC
预报有效从29日的 12点(UTC)到 30日的 12点(UTC)
风速10节,风向东北
能见度10公里或以上
少量云层高于2200英尺
成为
从 29日的 18点(UTC)到 29日的 20点(UTC)
风速节,风向
成为
从 30日的 03点(UTC)到 30日的 05点(UTC)
风速10节,风向
多云层高于1600英尺
成为
从 30日的 10点(UTC)到 30日的 12点(UTC)
风速10节,风向东转东北
少量云层高于2200英尺

TAF: HTZA 291100Z 2912/3012 05010KT 9999 FEW022 BECMG 2918/2920 00000KT BECMG 3003/3005 BKN016 35010KT BECMG 3010/3012 06010KT FEW022

超过4000个机场的气象观测和天气预报(METAR&TAF报告)。

可查询的气象台以黄色和红色小点在地图上表示。

将鼠标移到小点上方,可查看气象台名称。

然后点击查看天气观测和预报。

如需切换地图:点击带黑十字的绿色按钮放大地图;点击带横线的绿色按钮缩小地图;或者点击绿色箭头查看邻近地区的地图。


METAR-TAF: